sensor_id;sensor_type;location;lat;lon;timestamp;pressure;altitude;pressure_sealevel;temperature;humidity
72465;BME280;60471;52.150;4.508;2023-04-12T00:00:03;100091.75;;;8.76;86.99
72465;BME280;60471;52.150;4.508;2023-04-12T00:02:35;100079.22;;;8.81;87.00
72465;BME280;60471;52.150;4.508;2023-04-12T00:05:02;100082.91;;;8.77;87.82
72465;BME280;60471;52.150;4.508;2023-04-12T00:07:28;100069.09;;;8.89;87.82
72465;BME280;60471;52.150;4.508;2023-04-12T00:09:55;100055.19;;;8.87;87.97
72465;BME280;60471;52.150;4.508;2023-04-12T00:12:21;100045.16;;;8.78;87.87
72465;BME280;60471;52.150;4.508;2023-04-12T00:14:47;100045.59;;;8.86;88.24
72465;BME280;60471;52.150;4.508;2023-04-12T00:17:14;100064.28;;;8.82;88.18
72465;BME280;60471;52.150;4.508;2023-04-12T00:19:40;100031.69;;;8.84;88.07
72465;BME280;60471;52.150;4.508;2023-04-12T00:22:08;100006.56;;;8.79;88.35
72465;BME280;60471;52.150;4.508;2023-04-12T00:24:35;100015.00;;;8.68;88.55
72465;BME280;60471;52.150;4.508;2023-04-12T00:27:03;99996.69;;;8.66;88.49
72465;BME280;60471;52.150;4.508;2023-04-12T00:29:31;99997.22;;;8.73;88.06
72465;BME280;60471;52.150;4.508;2023-04-12T00:31:58;99989.34;;;8.73;88.26
72465;BME280;60471;52.150;4.508;2023-04-12T00:34:26;99963.69;;;8.77;88.15
72465;BME280;60471;52.150;4.508;2023-04-12T00:36:53;99980.59;;;8.88;87.89
72465;BME280;60471;52.150;4.508;2023-04-12T00:39:21;99965.41;;;8.78;88.14
72465;BME280;60471;52.150;4.508;2023-04-12T00:41:47;99963.38;;;8.83;88.08
72465;BME280;60471;52.150;4.508;2023-04-12T00:44:13;99966.50;;;8.74;88.14
72465;BME280;60471;52.150;4.508;2023-04-12T00:46:44;99948.94;;;8.74;88.02
72465;BME280;60471;52.150;4.508;2023-04-12T00:49:11;99940.03;;;8.77;88.05
72465;BME280;60471;52.150;4.508;2023-04-12T00:51:38;99929.50;;;8.77;88.30
72465;BME280;60471;52.150;4.508;2023-04-12T00:54:05;99928.00;;;8.73;88.27
72465;BME280;60471;52.150;4.508;2023-04-12T00:56:33;99925.28;;;8.74;88.27
72465;BME280;60471;52.150;4.508;2023-04-12T00:58:59;99918.06;;;8.78;88.20
72465;BME280;60471;52.150;4.508;2023-04-12T01:01:27;99907.81;;;8.73;87.96
72465;BME280;60471;52.150;4.508;2023-04-12T01:03:53;99903.66;;;8.69;88.12
72465;BME280;60471;52.150;4.508;2023-04-12T01:12:35;99873.09;;;8.66;88.42
72465;BME280;60471;52.150;4.508;2023-04-12T01:15:13;99871.25;;;8.68;88.71
72465;BME280;60471;52.150;4.508;2023-04-12T01:17:53;99868.00;;;8.63;88.82
72465;BME280;60471;52.150;4.508;2023-04-12T01:20:31;99842.38;;;8.67;88.43
72465;BME280;60471;52.150;4.508;2023-04-12T01:28:58;99817.63;;;8.71;88.02
72465;BME280;60471;52.150;4.508;2023-04-12T01:31:28;99822.19;;;8.67;88.18
72465;BME280;60471;52.150;4.508;2023-04-12T01:33:57;99805.31;;;8.56;88.46
72465;BME280;60471;52.150;4.508;2023-04-12T01:36:26;99803.47;;;8.58;88.80
72465;BME280;60471;52.150;4.508;2023-04-12T01:38:55;99800.75;;;8.59;88.74
72465;BME280;60471;52.150;4.508;2023-04-12T01:41:22;99782.34;;;8.59;88.69
72465;BME280;60471;52.150;4.508;2023-04-12T01:43:49;99815.75;;;8.57;88.85
72465;BME280;60471;52.150;4.508;2023-04-12T01:46:18;99779.97;;;8.55;89.03
72465;BME280;60471;52.150;4.508;2023-04-12T01:48:49;99767.25;;;8.63;88.46
72465;BME280;60471;52.150;4.508;2023-04-12T01:51:26;99780.66;;;8.58;88.46
72465;BME280;60471;52.150;4.508;2023-04-12T01:54:23;99765.78;;;8.57;88.37
72465;BME280;60471;52.150;4.508;2023-04-12T01:56:55;99740.38;;;8.58;88.45
72465;BME280;60471;52.150;4.508;2023-04-12T01:59:31;99746.28;;;8.61;88.35
72465;BME280;60471;52.150;4.508;2023-04-12T02:02:01;99740.09;;;8.62;88.13
72465;BME280;60471;52.150;4.508;2023-04-12T02:04:28;99733.56;;;8.54;88.73
72465;BME280;60471;52.150;4.508;2023-04-12T02:06:55;99738.09;;;8.52;88.78
72465;BME280;60471;52.150;4.508;2023-04-12T02:09:22;99710.66;;;8.56;89.20
72465;BME280;60471;52.150;4.508;2023-04-12T02:11:48;99721.28;;;8.54;89.26
72465;BME280;60471;52.150;4.508;2023-04-12T02:14:15;99702.88;;;8.54;89.48
72465;BME280;60471;52.150;4.508;2023-04-12T02:16:42;99707.47;;;8.51;89.73
72465;BME280;60471;52.150;4.508;2023-04-12T02:19:09;99702.06;;;8.38;89.96
72465;BME280;60471;52.150;4.508;2023-04-12T02:21:43;99701.28;;;8.52;90.24
72465;BME280;60471;52.150;4.508;2023-04-12T02:24:11;99700.34;;;8.53;90.42
72465;BME280;60471;52.150;4.508;2023-04-12T02:26:38;99685.50;;;8.52;90.11
72465;BME280;60471;52.150;4.508;2023-04-12T02:29:05;99683.50;;;8.41;89.88
72465;BME280;60471;52.150;4.508;2023-04-12T02:31:35;99671.00;;;8.45;90.19
72465;BME280;60471;52.150;4.508;2023-04-12T02:34:02;99661.09;;;8.50;90.38
72465;BME280;60471;52.150;4.508;2023-04-12T02:36:28;99659.22;;;8.52;90.63
72465;BME280;60471;52.150;4.508;2023-04-12T02:38:54;99642.78;;;8.48;90.90
72465;BME280;60471;52.150;4.508;2023-04-12T02:41:22;99660.16;;;8.51;90.88
72465;BME280;60471;52.150;4.508;2023-04-12T02:43:49;99649.44;;;8.54;90.85
72465;BME280;60471;52.150;4.508;2023-04-12T02:46:21;99647.09;;;8.49;90.92
72465;BME280;60471;52.150;4.508;2023-04-12T02:48:49;99636.31;;;8.54;91.31
72465;BME280;60471;52.150;4.508;2023-04-12T02:51:16;99652.34;;;8.49;91.48
72465;BME280;60471;52.150;4.508;2023-04-12T02:53:42;99629.25;;;8.54;91.60
72465;BME280;60471;52.150;4.508;2023-04-12T02:56:08;99621.47;;;8.53;91.74
72465;BME280;60471;52.150;4.508;2023-04-12T02:58:35;99641.44;;;8.41;92.37
72465;BME280;60471;52.150;4.508;2023-04-12T03:01:02;99610.72;;;8.41;92.58
72465;BME280;60471;52.150;4.508;2023-04-12T03:03:33;99602.41;;;8.49;92.62
72465;BME280;60471;52.150;4.508;2023-04-12T03:06:00;99588.50;;;8.47;92.61
72465;BME280;60471;52.150;4.508;2023-04-12T03:08:26;99608.84;;;8.43;92.55
72465;BME280;60471;52.150;4.508;2023-04-12T03:10:52;99593.28;;;8.55;92.44
72465;BME280;60471;52.150;4.508;2023-04-12T03:13:19;99590.41;;;8.59;92.41
72465;BME280;60471;52.150;4.508;2023-04-12T03:15:45;99581.28;;;8.51;92.50
72465;BME280;60471;52.150;4.508;2023-04-12T03:18:12;99582.97;;;8.52;92.31
72465;BME280;60471;52.150;4.508;2023-04-12T03:20:38;99595.66;;;8.59;91.92
72465;BME280;60471;52.150;4.508;2023-04-12T03:23:06;99583.81;;;8.66;92.12
72465;BME280;60471;52.150;4.508;2023-04-12T03:25:32;99574.44;;;8.62;92.49
72465;BME280;60471;52.150;4.508;2023-04-12T03:27:58;99577.25;;;8.59;92.52
72465;BME280;60471;52.150;4.508;2023-04-12T03:30:25;99574.78;;;8.56;92.55
72465;BME280;60471;52.150;4.508;2023-04-12T03:32:51;99563.06;;;8.48;92.58
72465;BME280;60471;52.150;4.508;2023-04-12T03:35:17;99556.69;;;8.66;92.69
72465;BME280;60471;52.150;4.508;2023-04-12T03:37:43;99566.94;;;8.70;92.19
72465;BME280;60471;52.150;4.508;2023-04-12T03:40:10;99556.72;;;8.80;91.84
72465;BME280;60471;52.150;4.508;2023-04-12T03:42:36;99544.56;;;8.78;91.74
72465;BME280;60471;52.150;4.508;2023-04-12T03:45:02;99550.31;;;8.84;91.16
72465;BME280;60471;52.150;4.508;2023-04-12T03:47:29;99541.69;;;8.82;91.47
72465;BME280;60471;52.150;4.508;2023-04-12T03:50:06;99544.50;;;8.79;91.34
72465;BME280;60471;52.150;4.508;2023-04-12T03:52:33;99539.91;;;8.83;91.47
72465;BME280;60471;52.150;4.508;2023-04-12T03:54:59;99522.53;;;8.80;91.57
72465;BME280;60471;52.150;4.508;2023-04-12T03:57:25;99524.31;;;8.80;91.94
72465;BME280;60471;52.150;4.508;2023-04-12T03:59:52;99515.91;;;8.87;91.69
72465;BME280;60471;52.150;4.508;2023-04-12T04:02:18;99523.47;;;8.79;91.93
72465;BME280;60471;52.150;4.508;2023-04-12T04:04:44;99513.69;;;8.81;92.20
72465;BME280;60471;52.150;4.508;2023-04-12T04:07:11;99514.34;;;8.85;91.87
72465;BME280;60471;52.150;4.508;2023-04-12T04:09:37;99513.28;;;8.87;91.79
72465;BME280;60471;52.150;4.508;2023-04-12T04:12:03;99505.97;;;8.78;92.10
72465;BME280;60471;52.150;4.508;2023-04-12T04:14:30;99500.81;;;8.77;92.24
72465;BME280;60471;52.150;4.508;2023-04-12T04:16:59;99502.66;;;8.89;92.34
72465;BME280;60471;52.150;4.508;2023-04-12T04:19:25;99511.91;;;8.82;92.55
72465;BME280;60471;52.150;4.508;2023-04-12T04:21:52;99505.13;;;8.92;92.47
72465;BME280;60471;52.150;4.508;2023-04-12T04:24:21;99519.13;;;8.78;92.87
72465;BME280;60471;52.150;4.508;2023-04-12T04:26:49;99519.13;;;8.78;93.18
72465;BME280;60471;52.150;4.508;2023-04-12T04:29:19;99519.28;;;8.89;92.87
72465;BME280;60471;52.150;4.508;2023-04-12T04:31:45;99517.16;;;8.82;93.17
72465;BME280;60471;52.150;4.508;2023-04-12T04:34:11;99530.75;;;8.88;93.22
72465;BME280;60471;52.150;4.508;2023-04-12T04:36:39;99529.38;;;8.83;93.07
72465;BME280;60471;52.150;4.508;2023-04-12T04:39:06;99523.56;;;8.92;92.93
72465;BME280;60471;52.150;4.508;2023-04-12T04:41:32;99515.16;;;8.99;92.71
72465;BME280;60471;52.150;4.508;2023-04-12T04:44:06;99523.72;;;9.03;92.86
72465;BME280;60471;52.150;4.508;2023-04-12T04:46:36;99523.78;;;9.16;92.57
72465;BME280;60471;52.150;4.508;2023-04-12T04:49:03;99528.97;;;9.17;92.51
72465;BME280;60471;52.150;4.508;2023-04-12T04:51:30;99523.31;;;9.23;92.12
72465;BME280;60471;52.150;4.508;2023-04-12T04:53:57;99521.03;;;9.32;92.01
72465;BME280;60471;52.150;4.508;2023-04-12T04:56:23;99531.28;;;9.36;92.13
72465;BME280;60471;52.150;4.508;2023-04-12T04:58:49;99525.34;;;9.33;92.03
72465;BME280;60471;52.150;4.508;2023-04-12T05:01:16;99523.19;;;9.39;91.57
72465;BME280;60471;52.150;4.508;2023-04-12T05:03:42;99515.63;;;9.47;91.05
72465;BME280;60471;52.150;4.508;2023-04-12T05:06:10;99520.38;;;9.55;90.99
72465;BME280;60471;52.150;4.508;2023-04-12T05:08:36;99515.72;;;9.73;90.68
72465;BME280;60471;52.150;4.508;2023-04-12T05:11:03;99529.31;;;9.67;90.46
72465;BME280;60471;52.150;4.508;2023-04-12T05:13:29;99514.97;;;9.44;91.24
72465;BME280;60471;52.150;4.508;2023-04-12T05:15:55;99517.53;;;9.45;91.09
72465;BME280;60471;52.150;4.508;2023-04-12T05:18:22;99510.41;;;9.60;90.73
72465;BME280;60471;52.150;4.508;2023-04-12T05:20:48;99511.88;;;9.64;90.24
72465;BME280;60471;52.150;4.508;2023-04-12T05:23:14;99500.88;;;9.72;89.56
72465;BME280;60471;52.150;4.508;2023-04-12T05:25:47;99503.50;;;9.72;89.27
72465;BME280;60471;52.150;4.508;2023-04-12T05:28:15;99505.53;;;9.81;89.03
72465;BME280;60471;52.150;4.508;2023-04-12T05:30:45;99499.53;;;9.79;89.03
72465;BME280;60471;52.150;4.508;2023-04-12T05:33:11;99492.47;;;9.79;88.64
72465;BME280;60471;52.150;4.508;2023-04-12T05:35:38;99513.13;;;9.85;88.18
72465;BME280;60471;52.150;4.508;2023-04-12T05:38:04;99502.25;;;9.77;88.00
72465;BME280;60471;52.150;4.508;2023-04-12T05:40:30;99508.28;;;9.79;87.86
72465;BME280;60471;52.150;4.508;2023-04-12T05:42:56;99511.53;;;9.83;87.49
72465;BME280;60471;52.150;4.508;2023-04-12T05:45:23;99509.47;;;9.88;87.13
72465;BME280;60471;52.150;4.508;2023-04-12T05:47:49;99535.75;;;9.75;87.03
72465;BME280;60471;52.150;4.508;2023-04-12T05:50:16;99532.25;;;9.75;87.43
72465;BME280;60471;52.150;4.508;2023-04-12T05:52:42;99514.28;;;9.81;86.87
72465;BME280;60471;52.150;4.508;2023-04-12T05:55:08;99514.50;;;9.78;86.56
72465;BME280;60471;52.150;4.508;2023-04-12T05:57:34;99537.22;;;9.67;86.53
72465;BME280;60471;52.150;4.508;2023-04-12T06:00:01;99517.63;;;9.71;86.39
72465;BME280;60471;52.150;4.508;2023-04-12T06:02:27;99514.03;;;9.72;85.82
72465;BME280;60471;52.150;4.508;2023-04-12T06:04:53;99514.63;;;9.63;85.37
72465;BME280;60471;52.150;4.508;2023-04-12T06:07:20;99520.63;;;9.65;84.66
72465;BME280;60471;52.150;4.508;2023-04-12T06:09:46;99519.31;;;9.72;84.70
72465;BME280;60471;52.150;4.508;2023-04-12T06:12:14;99512.81;;;9.77;84.24
72465;BME280;60471;52.150;4.508;2023-04-12T06:14:41;99506.38;;;9.81;83.87
72465;BME280;60471;52.150;4.508;2023-04-12T06:17:07;99505.09;;;9.74;83.21
72465;BME280;60471;52.150;4.508;2023-04-12T06:19:33;99503.00;;;9.79;83.27
72465;BME280;60471;52.150;4.508;2023-04-12T06:21:59;99515.16;;;9.95;81.55
72465;BME280;60471;52.150;4.508;2023-04-12T06:24:25;99515.22;;;9.80;82.19
72465;BME280;60471;52.150;4.508;2023-04-12T06:26:52;99524.31;;;9.89;81.81
72465;BME280;60471;52.150;4.508;2023-04-12T06:29:18;99531.03;;;9.80;81.85
72465;BME280;60471;52.150;4.508;2023-04-12T06:31:44;99524.69;;;9.70;82.20
72465;BME280;60471;52.150;4.508;2023-04-12T06:34:10;99531.13;;;9.79;82.55
72465;BME280;60471;52.150;4.508;2023-04-12T06:36:36;99519.75;;;9.78;82.46
72465;BME280;60471;52.150;4.508;2023-04-12T06:39:04;99521.97;;;9.84;82.11
72465;BME280;60471;52.150;4.508;2023-04-12T06:41:31;99518.28;;;9.87;81.78
72465;BME280;60471;52.150;4.508;2023-04-12T06:43:57;99515.38;;;9.92;80.91
72465;BME280;60471;52.150;4.508;2023-04-12T06:46:25;99510.50;;;9.98;81.13
72465;BME280;60471;52.150;4.508;2023-04-12T06:48:52;99502.25;;;10.30;79.43
72465;BME280;60471;52.150;4.508;2023-04-12T06:51:18;99532.66;;;10.08;79.08
72465;BME280;60471;52.150;4.508;2023-04-12T06:53:44;99515.78;;;9.98;78.60
72465;BME280;60471;52.150;4.508;2023-04-12T06:56:11;99501.59;;;10.01;78.67
72465;BME280;60471;52.150;4.508;2023-04-12T06:58:37;99503.69;;;10.08;77.17
72465;BME280;60471;52.150;4.508;2023-04-12T07:01:07;99510.28;;;10.28;75.78
72465;BME280;60471;52.150;4.508;2023-04-12T07:03:35;99507.97;;;10.24;75.95
72465;BME280;60471;52.150;4.508;2023-04-12T07:06:01;99513.81;;;10.14;75.77
72465;BME280;60471;52.150;4.508;2023-04-12T07:08:33;99521.03;;;9.85;77.11
72465;BME280;60471;52.150;4.508;2023-04-12T07:11:01;99523.59;;;10.00;76.40
72465;BME280;60471;52.150;4.508;2023-04-12T07:13:27;99516.69;;;9.84;76.42
72465;BME280;60471;52.150;4.508;2023-04-12T07:15:55;99515.03;;;9.96;76.17
72465;BME280;60471;52.150;4.508;2023-04-12T07:18:22;99516.44;;;10.02;75.48
72465;BME280;60471;52.150;4.508;2023-04-12T07:20:51;99510.28;;;10.41;74.86
72465;BME280;60471;52.150;4.508;2023-04-12T07:23:19;99507.00;;;10.63;73.94
72465;BME280;60471;52.150;4.508;2023-04-12T07:25:45;99496.53;;;10.99;73.88
72465;BME280;60471;52.150;4.508;2023-04-12T07:28:11;99482.34;;;11.37;71.05
72465;BME280;60471;52.150;4.508;2023-04-12T07:30:38;99484.88;;;11.39;71.76
72465;BME280;60471;52.150;4.508;2023-04-12T07:33:05;99496.09;;;11.42;68.72
72465;BME280;60471;52.150;4.508;2023-04-12T07:35:32;99478.84;;;11.13;69.61
72465;BME280;60471;52.150;4.508;2023-04-12T07:37:59;99497.53;;;11.22;67.67
72465;BME280;60471;52.150;4.508;2023-04-12T07:40:26;99480.84;;;11.22;68.14
72465;BME280;60471;52.150;4.508;2023-04-12T07:42:52;99482.97;;;11.17;67.35
72465;BME280;60471;52.150;4.508;2023-04-12T07:45:19;99491.44;;;11.09;68.07
72465;BME280;60471;52.150;4.508;2023-04-12T07:47:45;99495.66;;;11.12;68.46
72465;BME280;60471;52.150;4.508;2023-04-12T07:50:12;99485.66;;;11.28;68.72
72465;BME280;60471;52.150;4.508;2023-04-12T07:52:38;99503.03;;;11.19;68.44
72465;BME280;60471;52.150;4.508;2023-04-12T07:55:05;99493.06;;;10.73;70.00
72465;BME280;60471;52.150;4.508;2023-04-12T07:57:31;99487.16;;;11.32;67.76
72465;BME280;60471;52.150;4.508;2023-04-12T07:59:57;99486.47;;;11.41;67.11
72465;BME280;60471;52.150;4.508;2023-04-12T08:02:23;99489.00;;;11.19;67.23
72465;BME280;60471;52.150;4.508;2023-04-12T08:04:51;99496.38;;;11.74;66.37
72465;BME280;60471;52.150;4.508;2023-04-12T08:07:18;99486.78;;;11.13;65.88
72465;BME280;60471;52.150;4.508;2023-04-12T08:09:47;99498.69;;;10.69;66.03
72465;BME280;60471;52.150;4.508;2023-04-12T08:12:14;99497.25;;;11.01;65.72
72465;BME280;60471;52.150;4.508;2023-04-12T08:14:40;99490.81;;;11.06;64.72
72465;BME280;60471;52.150;4.508;2023-04-12T08:17:07;99493.47;;;10.93;65.67
72465;BME280;60471;52.150;4.508;2023-04-12T08:19:33;99480.81;;;10.98;65.99
72465;BME280;60471;52.150;4.508;2023-04-12T08:22:00;99487.72;;;10.75;66.54
72465;BME280;60471;52.150;4.508;2023-04-12T08:24:26;99484.97;;;11.13;67.01
72465;BME280;60471;52.150;4.508;2023-04-12T08:26:52;99494.81;;;11.96;64.25
72465;BME280;60471;52.150;4.508;2023-04-12T08:29:19;99490.88;;;12.12;63.96
72465;BME280;60471;52.150;4.508;2023-04-12T08:31:45;99489.91;;;12.13;62.90
72465;BME280;60471;52.150;4.508;2023-04-12T08:34:11;99491.75;;;12.35;60.69
72465;BME280;60471;52.150;4.508;2023-04-12T08:36:38;99489.78;;;12.15;60.58
72465;BME280;60471;52.150;4.508;2023-04-12T08:39:04;99486.94;;;12.18;59.55
72465;BME280;60471;52.150;4.508;2023-04-12T08:41:32;99492.19;;;12.07;58.69
72465;BME280;60471;52.150;4.508;2023-04-12T08:43:59;99496.75;;;12.62;55.01
72465;BME280;60471;52.150;4.508;2023-04-12T08:46:25;99480.13;;;13.05;52.99
72465;BME280;60471;52.150;4.508;2023-04-12T08:48:52;99478.91;;;12.42;54.41
72465;BME280;60471;52.150;4.508;2023-04-12T08:51:20;99475.75;;;12.26;55.50
72465;BME280;60471;52.150;4.508;2023-04-12T08:53:47;99476.06;;;11.99;53.71
72465;BME280;60471;52.150;4.508;2023-04-12T08:56:16;99460.34;;;11.73;55.53
72465;BME280;60471;52.150;4.508;2023-04-12T08:58:46;99472.72;;;12.08;54.83
72465;BME280;60471;52.150;4.508;2023-04-12T09:01:14;99460.72;;;12.26;54.89
72465;BME280;60471;52.150;4.508;2023-04-12T09:03:42;99484.81;;;12.45;54.04
72465;BME280;60471;52.150;4.508;2023-04-12T15:18:18;99465.53;;;16.08;36.94
72465;BME280;60471;52.150;4.508;2023-04-12T15:20:45;99426.66;;;17.98;33.44
72465;BME280;60471;52.150;4.508;2023-04-12T15:23:12;99448.72;;;15.88;36.96
72465;BME280;60471;52.150;4.508;2023-04-12T15:25:38;99494.00;;;14.88;39.17
72465;BME280;60471;52.150;4.508;2023-04-12T15:28:04;99488.81;;;13.93;42.06
72465;BME280;60471;52.150;4.508;2023-04-12T15:30:31;99445.47;;;13.51;43.11
72465;BME280;60471;52.150;4.508;2023-04-12T15:32:57;99468.28;;;13.75;43.92
72465;BME280;60471;52.150;4.508;2023-04-12T15:35:23;99469.13;;;14.17;42.60
72465;BME280;60471;52.150;4.508;2023-04-12T15:37:49;99454.59;;;13.90;42.08
72465;BME280;60471;52.150;4.508;2023-04-12T15:40:16;99478.19;;;14.35;40.33
72465;BME280;60471;52.150;4.508;2023-04-12T15:42:44;99476.78;;;13.57;41.45
72465;BME280;60471;52.150;4.508;2023-04-12T15:45:11;99512.03;;;13.26;42.28
72465;BME280;60471;52.150;4.508;2023-04-12T15:47:38;99489.59;;;13.73;41.33
72465;BME280;60471;52.150;4.508;2023-04-12T15:50:06;99476.53;;;14.13;40.58
72465;BME280;60471;52.150;4.508;2023-04-12T15:52:33;99461.06;;;13.66;40.68
72465;BME280;60471;52.150;4.508;2023-04-12T15:55:00;99485.34;;;13.50;41.59
72465;BME280;60471;52.150;4.508;2023-04-12T15:57:27;99530.31;;;13.40;41.42
72465;BME280;60471;52.150;4.508;2023-04-12T15:59:53;99426.31;;;13.04;41.26
72465;BME280;60471;52.150;4.508;2023-04-12T16:02:20;99473.88;;;13.60;41.68
72465;BME280;60471;52.150;4.508;2023-04-12T16:04:47;99479.69;;;14.07;40.61
72465;BME280;60471;52.150;4.508;2023-04-12T16:07:13;99461.81;;;14.09;38.66
72465;BME280;60471;52.150;4.508;2023-04-12T16:09:40;99469.22;;;13.42;39.06
72465;BME280;60471;52.150;4.508;2023-04-12T16:12:07;99449.53;;;13.55;39.64
72465;BME280;60471;52.150;4.508;2023-04-12T16:14:33;99459.25;;;15.01;36.86
72465;BME280;60471;52.150;4.508;2023-04-12T16:16:59;99441.63;;;13.76;39.28
72465;BME280;60471;52.150;4.508;2023-04-12T16:19:26;99512.94;;;13.47;40.89
72465;BME280;60471;52.150;4.508;2023-04-12T16:21:53;99473.06;;;13.49;41.46
72465;BME280;60471;52.150;4.508;2023-04-12T16:24:19;99439.03;;;13.33;41.85
72465;BME280;60471;52.150;4.508;2023-04-12T16:26:45;99474.94;;;13.69;41.96
72465;BME280;60471;52.150;4.508;2023-04-12T16:29:12;99446.09;;;13.97;41.54
72465;BME280;60471;52.150;4.508;2023-04-12T16:31:39;99479.88;;;13.62;42.63
72465;BME280;60471;52.150;4.508;2023-04-12T16:34:05;99437.31;;;13.96;42.07
72465;BME280;60471;52.150;4.508;2023-04-12T16:36:31;99469.59;;;13.80;43.13
72465;BME280;60471;52.150;4.508;2023-04-12T16:38:57;99484.53;;;14.02;42.54
72465;BME280;60471;52.150;4.508;2023-04-12T16:41:25;99411.53;;;13.66;43.32
72465;BME280;60471;52.150;4.508;2023-04-12T16:43:52;99415.88;;;14.09;42.98
72465;BME280;60471;52.150;4.508;2023-04-12T16:46:20;99405.94;;;13.16;45.12
72465;BME280;60471;52.150;4.508;2023-04-12T16:48:46;99432.59;;;12.92;44.46
72465;BME280;60471;52.150;4.508;2023-04-12T16:51:13;99420.22;;;13.47;44.10
72465;BME280;60471;52.150;4.508;2023-04-12T16:53:39;99393.19;;;13.53;44.24
72465;BME280;60471;52.150;4.508;2023-04-12T16:56:06;99389.75;;;13.42;44.86
72465;BME280;60471;52.150;4.508;2023-04-12T16:58:32;99397.00;;;12.85;45.64
72465;BME280;60471;52.150;4.508;2023-04-12T17:00:58;99392.31;;;12.55;47.07
72465;BME280;60471;52.150;4.508;2023-04-12T17:03:24;99405.91;;;12.73;46.43
72465;BME280;60471;52.150;4.508;2023-04-12T17:05:51;99411.94;;;12.64;46.69
72465;BME280;60471;52.150;4.508;2023-04-12T17:08:17;99388.34;;;12.72;45.72
72465;BME280;60471;52.150;4.508;2023-04-12T17:10:43;99505.00;;;12.46;45.67
72465;BME280;60471;52.150;4.508;2023-04-12T17:13:09;99396.78;;;12.32;45.61
72465;BME280;60471;52.150;4.508;2023-04-12T17:15:36;99391.63;;;12.42;45.98
72465;BME280;60471;52.150;4.508;2023-04-12T17:18:04;99377.31;;;12.33;46.33
72465;BME280;60471;52.150;4.508;2023-04-12T17:20:31;99372.72;;;12.02;47.84
72465;BME280;60471;52.150;4.508;2023-04-12T17:22:58;99379.69;;;12.25;46.16
72465;BME280;60471;52.150;4.508;2023-04-12T17:25:25;99409.28;;;12.19;46.79
72465;BME280;60471;52.150;4.508;2023-04-12T17:27:54;99376.38;;;11.77;47.24
72465;BME280;60471;52.150;4.508;2023-04-12T17:30:21;99401.09;;;11.65;46.47
72465;BME280;60471;52.150;4.508;2023-04-12T17:32:49;99380.16;;;11.85;46.22
72465;BME280;60471;52.150;4.508;2023-04-12T17:35:17;99377.47;;;11.50;47.72
72465;BME280;60471;52.150;4.508;2023-04-12T17:37:43;99367.16;;;11.47;48.02
72465;BME280;60471;52.150;4.508;2023-04-12T17:40:10;99357.22;;;11.51;47.07
72465;BME280;60471;52.150;4.508;2023-04-12T17:42:38;99358.06;;;11.51;47.18
72465;BME280;60471;52.150;4.508;2023-04-12T17:45:06;99346.53;;;11.52;47.53
72465;BME280;60471;52.150;4.508;2023-04-12T17:47:33;99371.28;;;11.51;47.45
72465;BME280;60471;52.150;4.508;2023-04-12T17:49:59;99360.34;;;11.56;48.00
72465;BME280;60471;52.150;4.508;2023-04-12T17:52:26;99353.50;;;11.53;48.15
72465;BME280;60471;52.150;4.508;2023-04-12T17:54:52;99359.75;;;11.52;48.80
72465;BME280;60471;52.150;4.508;2023-04-12T17:57:18;99355.41;;;11.51;49.20
72465;BME280;60471;52.150;4.508;2023-04-12T17:59:44;99348.91;;;11.44;49.39
72465;BME280;60471;52.150;4.508;2023-04-12T18:02:11;99347.44;;;11.29;48.47
72465;BME280;60471;52.150;4.508;2023-04-12T18:04:37;99349.56;;;11.24;47.96
72465;BME280;60471;52.150;4.508;2023-04-12T18:07:05;99347.88;;;11.23;47.73
72465;BME280;60471;52.150;4.508;2023-04-12T18:09:34;99339.09;;;11.22;47.46
72465;BME280;60471;52.150;4.508;2023-04-12T18:12:00;99356.34;;;11.15;47.00
72465;BME280;60471;52.150;4.508;2023-04-12T18:14:26;99349.63;;;11.11;47.79
72465;BME280;60471;52.150;4.508;2023-04-12T18:16:53;99358.94;;;11.04;47.10
72465;BME280;60471;52.150;4.508;2023-04-12T18:19:19;99338.06;;;11.01;47.91
72465;BME280;60471;52.150;4.508;2023-04-12T18:21:45;99341.38;;;10.92;47.63
72465;BME280;60471;52.150;4.508;2023-04-12T18:24:16;99332.97;;;10.87;47.30
72465;BME280;60471;52.150;4.508;2023-04-12T18:26:43;99338.78;;;10.79;47.38
72465;BME280;60471;52.150;4.508;2023-04-12T18:29:11;99344.28;;;10.76;47.41
72465;BME280;60471;52.150;4.508;2023-04-12T18:31:39;99361.06;;;10.75;47.07
72465;BME280;60471;52.150;4.508;2023-04-12T18:34:06;99351.75;;;10.82;47.05
72465;BME280;60471;52.150;4.508;2023-04-12T18:36:36;99333.28;;;10.82;47.31
72465;BME280;60471;52.150;4.508;2023-04-12T18:39:03;99340.59;;;10.79;47.34
72465;BME280;60471;52.150;4.508;2023-04-12T18:41:31;99336.50;;;10.74;47.78
72465;BME280;60471;52.150;4.508;2023-04-12T18:43:57;99328.66;;;10.73;47.98
72465;BME280;60471;52.150;4.508;2023-04-12T18:46:23;99335.25;;;10.67;47.79
72465;BME280;60471;52.150;4.508;2023-04-12T18:48:51;99332.41;;;10.58;47.68
72465;BME280;60471;52.150;4.508;2023-04-12T18:51:21;99319.53;;;10.66;47.31
72465;BME280;60471;52.150;4.508;2023-04-12T18:53:48;99319.78;;;10.74;47.47
72465;BME280;60471;52.150;4.508;2023-04-12T18:56:16;99320.13;;;10.69;47.47
72465;BME280;60471;52.150;4.508;2023-04-12T18:58:49;99319.97;;;10.60;46.75
72465;BME280;60471;52.150;4.508;2023-04-12T19:01:19;99321.63;;;10.61;46.79
72465;BME280;60471;52.150;4.508;2023-04-12T19:03:46;99319.00;;;10.61;47.10
72465;BME280;60471;52.150;4.508;2023-04-12T19:06:13;99327.88;;;10.60;46.73
72465;BME280;60471;52.150;4.508;2023-04-12T19:08:40;99327.03;;;10.59;46.63
72465;BME280;60471;52.150;4.508;2023-04-12T19:11:06;99310.41;;;10.46;46.88
72465;BME280;60471;52.150;4.508;2023-04-12T19:13:33;99329.38;;;10.51;46.61
72465;BME280;60471;52.150;4.508;2023-04-12T19:16:00;99301.00;;;10.55;46.87
72465;BME280;60471;52.150;4.508;2023-04-12T19:18:27;99291.00;;;10.47;46.88
72465;BME280;60471;52.150;4.508;2023-04-12T19:20:55;99311.13;;;10.48;47.04
72465;BME280;60471;52.150;4.508;2023-04-12T19:23:21;99299.03;;;10.45;47.15
72465;BME280;60471;52.150;4.508;2023-04-12T19:25:47;99299.41;;;10.52;47.02
72465;BME280;60471;52.150;4.508;2023-04-12T19:28:14;99297.34;;;10.44;47.42